Time;durP1;ratioP1;P1;durP2;ratioP2;P2;SDS_P1;SDS_P2;PMS_P1;PMS_P2;Temp;Humidity;BMP_temperature;BMP_pressure;BME280_temperature;BME280_humidity;BME280_pressure;Samples;Min_cycle;Max_cycle;Signal;HPM_P1;HPM_P2
2023/12/21 00:02:13;;;;;;;1.23;1.10;;;9.20;64.80;;;;;;4989854;28;20217;-59
2023/12/21 00:04:38;;;;;;;3.00;1.20;;;9.20;64.20;;;;;;4990637;28;20233;-60
2023/12/21 00:07:04;;;;;;;1.50;1.07;;;9.10;64.70;;;;;;4986232;28;20221;-59
2023/12/21 00:09:29;;;;;;;1.20;1.07;;;9.10;64.80;;;;;;4989633;28;20198;-58
2023/12/21 00:11:56;;;;;;;1.10;1.00;;;9.10;64.90;;;;;;4983802;28;20179;-61
2023/12/21 00:14:23;;;;;;;1.07;0.97;;;9.10;65.10;;;;;;4987818;28;20274;-59
2023/12/21 00:16:48;;;;;;;1.20;1.10;;;9.20;64.90;;;;;;4989454;28;20972;-60
2023/12/21 00:19:14;;;;;;;1.90;1.00;;;9.20;64.60;;;;;;4987048;28;20616;-61
2023/12/21 00:21:39;;;;;;;1.33;0.90;;;9.20;64.40;;;;;;4987156;28;20225;-60
2023/12/21 00:24:05;;;;;;;2.10;1.13;;;9.40;64.80;;;;;;4990469;28;20222;-61
2023/12/21 00:26:30;;;;;;;1.00;0.90;;;9.40;64.70;;;;;;4987398;28;20202;-60
2023/12/21 00:28:56;;;;;;;2.13;0.93;;;9.40;64.90;;;;;;4989476;28;20178;-60
2023/12/21 00:31:22;;;;;;;1.00;0.90;;;9.50;64.80;;;;;;4985529;28;20261;-60
2023/12/21 00:33:48;;;;;;;1.00;0.90;;;9.60;64.30;;;;;;4988214;28;20206;-60
2023/12/21 00:36:17;;;;;;;2.90;1.30;;;9.60;64.10;;;;;;4987814;28;20480;-60
2023/12/21 00:38:42;;;;;;;0.90;0.90;;;9.50;63.80;;;;;;4990343;28;20598;-60
2023/12/21 00:41:08;;;;;;;3.53;1.07;;;9.70;63.90;;;;;;4986029;28;20433;-60
2023/12/21 00:43:33;;;;;;;2.30;0.90;;;9.50;64.50;;;;;;4989409;28;20213;-60
2023/12/21 00:45:59;;;;;;;2.03;1.00;;;9.40;64.70;;;;;;4983738;28;20210;-60
2023/12/21 00:48:25;;;;;;;0.70;0.70;;;9.40;65.60;;;;;;4988927;28;20586;-60
2023/12/21 00:50:51;;;;;;;0.97;0.77;;;9.40;65.70;;;;;;4990216;28;20654;-60
2023/12/21 00:53:19;;;;;;;0.87;0.83;;;9.40;65.50;;;;;;4987446;28;20422;-60
2023/12/21 00:55:44;;;;;;;1.00;0.70;;;9.20;65.30;;;;;;4987430;28;20222;-59
2023/12/21 00:58:10;;;;;;;3.90;0.90;;;9.50;65.50;;;;;;4990317;28;20422;-60
2023/12/21 01:00:36;;;;;;;1.23;0.97;;;9.60;65.30;;;;;;4985352;28;20560;-60
2023/12/21 01:03:02;;;;;;;2.17;0.80;;;9.80;64.30;;;;;;4989507;28;20210;-60
2023/12/21 01:05:27;;;;;;;0.77;0.77;;;9.80;63.30;;;;;;4983486;28;20210;-59
2023/12/21 01:07:53;;;;;;;0.90;0.60;;;9.80;63.80;;;;;;4988174;28;20434;-60
2023/12/21 01:10:19;;;;;;;1.00;0.60;;;9.80;63.70;;;;;;4989458;28;20197;-60
2023/12/21 01:12:44;;;;;;;0.70;0.70;;;9.90;63.70;;;;;;4987452;28;20190;-59
2023/12/21 01:15:10;;;;;;;0.70;0.70;;;9.90;63.30;;;;;;4986818;28;20210;-59
2023/12/21 01:17:36;;;;;;;2.13;0.70;;;9.80;63.60;;;;;;4989343;28;20183;-60
2023/12/21 01:20:01;;;;;;;1.07;1.00;;;9.70;63.60;;;;;;4985908;28;20223;-59
2023/12/21 01:22:27;;;;;;;1.03;0.60;;;9.70;63.90;;;;;;4989165;28;20197;-61
2023/12/21 01:24:52;;;;;;;2.67;2.50;;;9.60;63.80;;;;;;4987379;28;20556;-60
2023/12/21 01:27:20;;;;;;;1.17;0.70;;;9.60;64.40;;;;;;4987151;28;20674;-60
2023/12/21 01:29:46;;;;;;;0.83;0.80;;;9.80;63.90;;;;;;4986989;28;20182;-59
2023/12/21 01:32:12;;;;;;;1.73;0.67;;;9.90;63.60;;;;;;4984661;28;20437;-59
2023/12/21 01:34:37;;;;;;;0.90;0.63;;;9.90;63.90;;;;;;4985855;28;20429;-60
2023/12/21 01:37:03;;;;;;;0.70;0.60;;;10.00;62.80;;;;;;4989529;28;20210;-60
2023/12/21 01:39:28;;;;;;;0.67;0.67;;;9.90;63.60;;;;;;4984452;28;20741;-61
2023/12/21 01:41:54;;;;;;;1.73;0.70;;;10.00;62.90;;;;;;4987630;28;20199;-60
2023/12/21 01:44:20;;;;;;;0.90;0.60;;;9.90;64.00;;;;;;4987859;28;20190;-61
2023/12/21 01:46:45;;;;;;;0.60;0.60;;;9.80;64.30;;;;;;4985500;28;20598;-60
2023/12/21 01:49:12;;;;;;;0.70;0.70;;;9.80;64.30;;;;;;4987966;28;20680;-60
2023/12/21 01:51:39;;;;;;;0.93;0.87;;;10.00;63.10;;;;;;4985619;28;20218;-61
2023/12/21 01:54:07;;;;;;;1.53;0.70;;;10.10;62.70;;;;;;4985873;28;20454;-59
2023/12/21 01:56:33;;;;;;;1.20;0.80;;;10.00;63.00;;;;;;4988719;28;20449;-60
2023/12/21 01:59:00;;;;;;;0.60;0.60;;;9.80;63.70;;;;;;4984305;28;20470;-62
2023/12/21 02:01:26;;;;;;;1.03;0.60;;;9.70;64.40;;;;;;4987170;28;20437;-61
2023/12/21 02:03:55;;;;;;;0.57;0.53;;;9.80;64.40;;;;;;5008206;23;21054;-58
2023/12/21 02:06:21;;;;;;;1.40;1.00;;;9.80;64.20;;;;;;5003730;28;21039;-58
2023/12/21 02:08:46;;;;;;;1.33;0.80;;;9.90;64.30;;;;;;4999846;28;20426;-59
2023/12/21 02:11:12;;;;;;;0.97;0.87;;;9.90;63.90;;;;;;4999612;28;20430;-59
2023/12/21 02:13:38;;;;;;;0.70;0.60;;;9.80;64.20;;;;;;4998918;28;20608;-60
2023/12/21 02:16:08;;;;;;;0.60;0.50;;;9.90;64.20;;;;;;4995752;28;20700;-59
2023/12/21 02:18:34;;;;;;;1.30;0.70;;;9.90;63.70;;;;;;4996362;28;20226;-59
2023/12/21 02:21:00;;;;;;;1.57;0.53;;;9.70;63.50;;;;;;4997865;28;20422;-60
2023/12/21 02:23:28;;;;;;;1.20;0.60;;;9.80;64.00;;;;;;4999159;28;20433;-58
2023/12/21 02:25:54;;;;;;;0.70;0.70;;;9.60;64.10;;;;;;4995690;28;20891;-58
2023/12/21 02:28:20;;;;;;;0.90;0.70;;;9.70;64.10;;;;;;4997633;28;20449;-59
2023/12/21 02:30:47;;;;;;;1.13;0.60;;;9.70;64.00;;;;;;4997176;28;20429;-58
2023/12/21 02:33:13;;;;;;;0.57;0.50;;;9.70;64.30;;;;;;4997624;28;20342;-58
2023/12/21 02:35:39;;;;;;;0.67;0.63;;;9.60;64.60;;;;;;5002328;28;20471;-59
2023/12/21 02:38:05;;;;;;;0.60;0.60;;;9.70;64.50;;;;;;4999444;28;20429;-58
2023/12/21 02:40:30;;;;;;;1.27;0.60;;;9.90;64.00;;;;;;4999289;28;20188;-59
2023/12/21 02:42:56;;;;;;;2.53;0.50;;;9.90;63.60;;;;;;5000777;28;20187;-60
2023/12/21 02:45:21;;;;;;;1.43;0.50;;;10.10;62.10;;;;;;4999081;28;20233;-60
2023/12/21 02:47:47;;;;;;;0.57;0.50;;;10.00;61.90;;;;;;4999544;28;20178;-60
2023/12/21 02:50:12;;;;;;;0.60;0.60;;;10.00;62.30;;;;;;4997182;28;20194;-58
2023/12/21 02:52:38;;;;;;;0.63;0.57;;;10.10;62.50;;;;;;5001487;28;20190;-59
2023/12/21 02:55:04;;;;;;;0.93;0.60;;;10.10;61.90;;;;;;4996692;28;20190;-59
2023/12/21 02:57:29;;;;;;;1.53;0.50;;;9.90;63.30;;;;;;5003692;28;20190;-59
2023/12/21 02:59:55;;;;;;;0.57;0.50;;;9.80;63.80;;;;;;4998150;28;20210;-59
2023/12/21 03:02:20;;;;;;;0.50;0.50;;;9.70;64.10;;;;;;4999191;28;20243;-58
2023/12/21 03:04:46;;;;;;;0.60;0.60;;;9.70;64.70;;;;;;4996467;28;20300;-59
2023/12/21 03:07:11;;;;;;;0.97;0.50;;;9.80;64.90;;;;;;4996798;28;20179;-59
2023/12/21 03:09:37;;;;;;;0.80;0.60;;;9.60;64.50;;;;;;4998395;28;20186;-59
2023/12/21 03:12:02;;;;;;;0.50;0.50;;;9.80;64.60;;;;;;4995677;28;20693;-57
2023/12/21 03:14:28;;;;;;;2.00;0.53;;;9.70;64.50;;;;;;4998409;28;20557;-61
2023/12/21 03:16:54;;;;;;;0.50;0.50;;;9.60;64.90;;;;;;4996098;28;20769;-59
2023/12/21 03:19:19;;;;;;;1.03;0.63;;;9.70;65.00;;;;;;4997680;28;20365;-58
2023/12/21 03:21:45;;;;;;;0.87;0.60;;;9.90;65.30;;;;;;4996942;28;20252;-59
2023/12/21 03:24:10;;;;;;;0.60;0.50;;;9.80;64.50;;;;;;4997290;28;20190;-60
2023/12/21 03:26:36;;;;;;;0.60;0.50;;;9.80;64.80;;;;;;5001426;28;20212;-58
2023/12/21 03:29:01;;;;;;;0.60;0.50;;;9.60;65.00;;;;;;4997675;28;20392;-59
2023/12/21 03:31:27;;;;;;;0.50;0.50;;;9.70;65.80;;;;;;4998401;28;20178;-58
2023/12/21 03:33:53;;;;;;;0.50;0.40;;;9.60;65.20;;;;;;4999200;28;20245;-59
2023/12/21 03:36:18;;;;;;;0.50;0.50;;;9.70;65.50;;;;;;4997908;28;20202;-59
2023/12/21 03:38:44;;;;;;;0.50;0.50;;;9.60;65.50;;;;;;5001748;28;20210;-59
2023/12/21 03:41:09;;;;;;;2.10;0.60;;;9.60;65.90;;;;;;5000806;28;20676;-60
2023/12/21 03:43:35;;;;;;;0.70;0.70;;;9.70;65.70;;;;;;5002225;28;20680;-59
2023/12/21 03:46:01;;;;;;;0.50;0.50;;;9.80;65.80;;;;;;5001974;28;20229;-58
2023/12/21 03:48:26;;;;;;;0.50;0.50;;;9.70;65.50;;;;;;5002620;28;20423;-58
2023/12/21 03:50:52;;;;;;;0.50;0.50;;;9.50;66.20;;;;;;5000686;28;20515;-60
2023/12/21 03:53:18;;;;;;;0.60;0.60;;;9.50;67.40;;;;;;5001000;28;20201;-59
2023/12/21 03:55:43;;;;;;;0.70;0.50;;;9.50;66.80;;;;;;5000157;28;20234;-58
2023/12/21 03:58:09;;;;;;;0.50;0.50;;;9.60;66.70;;;;;;4999685;28;20195;-58
2023/12/21 04:00:35;;;;;;;0.80;0.50;;;9.70;66.30;;;;;;5005081;28;20540;-59
2023/12/21 04:03:01;;;;;;;0.60;0.60;;;9.70;66.50;;;;;;5000128;28;20611;-59
2023/12/21 04:05:26;;;;;;;0.60;0.50;;;9.70;66.30;;;;;;5005104;28;20271;-58
2023/12/21 04:07:52;;;;;;;0.80;0.60;;;9.60;66.30;;;;;;4999477;28;20434;-59
2023/12/21 04:10:18;;;;;;;0.50;0.50;;;9.40;67.30;;;;;;5000122;28;20186;-60
2023/12/21 04:12:43;;;;;;;0.77;0.53;;;9.40;68.50;;;;;;5000661;28;20273;-59
2023/12/21 04:15:11;;;;;;;0.43;0.40;;;9.40;67.70;;;;;;4998472;28;20290;-60
2023/12/21 04:17:37;;;;;;;0.60;0.53;;;9.50;68.00;;;;;;5005709;28;20544;-60
2023/12/21 04:20:03;;;;;;;0.50;0.50;;;9.60;67.60;;;;;;5000144;28;20488;-59
2023/12/21 04:22:28;;;;;;;1.53;0.63;;;9.60;67.10;;;;;;5002030;28;20575;-57
2023/12/21 04:24:54;;;;;;;0.50;0.50;;;9.60;67.90;;;;;;4998286;28;20504;-59
2023/12/21 04:27:19;;;;;;;0.50;0.50;;;9.50;68.20;;;;;;5000644;28;20190;-59
2023/12/21 04:29:45;;;;;;;0.50;0.50;;;9.40;68.20;;;;;;4999564;28;20854;-59
2023/12/21 04:32:11;;;;;;;0.50;0.50;;;9.50;68.50;;;;;;4999266;28;20274;-60
2023/12/21 04:34:36;;;;;;;0.47;0.40;;;9.20;68.40;;;;;;5000305;28;20189;-60
2023/12/21 04:37:02;;;;;;;0.50;0.40;;;9.50;68.70;;;;;;4998341;28;20199;-59
2023/12/21 04:39:27;;;;;;;0.50;0.40;;;9.40;68.90;;;;;;5001349;28;20292;-60
2023/12/21 04:41:54;;;;;;;0.47;0.40;;;9.50;70.10;;;;;;5000241;28;20179;-59
2023/12/21 04:44:19;;;;;;;0.50;0.40;;;9.40;70.30;;;;;;5000154;28;20194;-59
2023/12/21 04:46:48;;;;;;;1.47;0.43;;;9.30;70.50;;;;;;5002187;28;20469;-59
2023/12/21 04:49:14;;;;;;;0.40;0.40;;;9.30;71.00;;;;;;5000360;28;20646;-59
2023/12/21 04:51:39;;;;;;;0.70;0.50;;;9.50;70.70;;;;;;4998977;28;20429;-58
2023/12/21 04:54:05;;;;;;;0.50;0.50;;;9.50;70.30;;;;;;4997915;28;20441;-58
2023/12/21 04:56:31;;;;;;;0.50;0.43;;;9.40;70.60;;;;;;5000632;28;20288;-59
2023/12/21 04:58:57;;;;;;;0.40;0.40;;;9.50;71.00;;;;;;4998053;28;20612;-59
2023/12/21 05:01:22;;;;;;;0.50;0.40;;;9.30;71.10;;;;;;4998799;28;20686;-59
2023/12/21 05:03:48;;;;;;;0.50;0.43;;;9.40;71.90;;;;;;4999760;28;20194;-60
2023/12/21 05:06:14;;;;;;;0.60;0.47;;;9.50;71.70;;;;;;4998592;28;20284;-60
2023/12/21 05:08:39;;;;;;;0.70;0.40;;;9.50;71.10;;;;;;5004042;28;20260;-58
2023/12/21 05:11:05;;;;;;;0.40;0.40;;;9.20;71.40;;;;;;5005304;28;20556;-59
2023/12/21 05:13:31;;;;;;;0.60;0.60;;;9.20;71.80;;;;;;5000888;28;20268;-60
2023/12/21 05:15:56;;;;;;;1.10;0.50;;;9.40;71.20;;;;;;4996752;28;20294;-58
2023/12/21 05:18:23;;;;;;;0.50;0.50;;;9.40;71.20;;;;;;4999418;28;20201;-59
2023/12/21 05:20:49;;;;;;;0.80;0.50;;;9.50;71.40;;;;;;4998588;28;20178;-59
2023/12/21 05:23:14;;;;;;;0.67;0.50;;;9.50;71.50;;;;;;5002924;28;20792;-59
2023/12/21 05:25:40;;;;;;;0.63;0.50;;;9.30;71.70;;;;;;4998972;28;20680;-59
2023/12/21 05:28:06;;;;;;;0.50;0.50;;;9.40;71.80;;;;;;4998961;28;20182;-58
2023/12/21 05:30:32;;;;;;;0.50;0.50;;;9.50;71.70;;;;;;5000538;28;20209;-58
2023/12/21 05:32:58;;;;;;;0.50;0.40;;;9.50;71.50;;;;;;5000666;28;20421;-60
2023/12/21 05:35:25;;;;;;;0.70;0.50;;;9.70;71.40;;;;;;5000315;28;20462;-59
2023/12/21 05:37:50;;;;;;;0.67;0.53;;;9.60;71.20;;;;;;5002173;28;20200;-60
2023/12/21 05:40:16;;;;;;;1.57;0.50;;;9.50;71.30;;;;;;5001261;28;20465;-58
2023/12/21 05:42:42;;;;;;;0.80;0.50;;;9.40;72.10;;;;;;4999445;28;20205;-61
2023/12/21 05:45:07;;;;;;;0.90;0.40;;;9.50;71.80;;;;;;4999998;28;20202;-60
2023/12/21 05:47:33;;;;;;;0.43;0.43;;;9.50;71.40;;;;;;5001389;28;20181;-59
2023/12/21 05:49:59;;;;;;;0.50;0.40;;;9.50;71.20;;;;;;4997225;28;20520;-58
2023/12/21 05:52:24;;;;;;;0.50;0.50;;;9.50;71.20;;;;;;4999658;28;21163;-57
2023/12/21 05:54:50;;;;;;;0.67;0.50;;;9.50;71.30;;;;;;4997275;28;20819;-59
2023/12/21 05:57:16;;;;;;;0.40;0.40;;;9.60;70.80;;;;;;4998207;28;20190;-60
2023/12/21 05:59:42;;;;;;;0.50;0.50;;;9.50;70.70;;;;;;4998864;28;20248;-60
2023/12/21 06:02:08;;;;;;;0.70;0.60;;;9.60;70.90;;;;;;4995422;28;20945;-60
2023/12/21 06:04:33;;;;;;;0.50;0.47;;;9.60;70.80;;;;;;4998915;28;20456;-59
2023/12/21 06:06:59;;;;;;;1.27;0.50;;;9.60;70.50;;;;;;4999482;28;20692;-59
2023/12/21 06:09:25;;;;;;;1.10;0.60;;;9.70;70.90;;;;;;4999605;28;20673;-59
2023/12/21 06:11:51;;;;;;;0.50;0.50;;;9.80;70.60;;;;;;4998587;28;20190;-59
2023/12/21 06:14:16;;;;;;;0.60;0.50;;;10.00;68.60;;;;;;5000557;28;20890;-60
2023/12/21 06:16:42;;;;;;;0.50;0.40;;;9.90;69.50;;;;;;5000152;28;20288;-60
2023/12/21 06:19:10;;;;;;;0.50;0.50;;;9.80;70.00;;;;;;4999694;28;20245;-60
2023/12/21 06:21:39;;;;;;;0.40;0.40;;;9.70;70.30;;;;;;5001943;28;20236;-59
2023/12/21 06:24:06;;;;;;;0.50;0.50;;;9.60;71.00;;;;;;5001377;28;20452;-59
2023/12/21 06:26:32;;;;;;;0.50;0.50;;;9.40;71.50;;;;;;4996166;28;20448;-59
2023/12/21 06:28:57;;;;;;;0.40;0.40;;;9.50;71.90;;;;;;5000949;28;20430;-59
2023/12/21 06:31:23;;;;;;;0.70;0.50;;;9.60;72.70;;;;;;4998955;28;20432;-60
2023/12/21 06:33:49;;;;;;;0.50;0.47;;;9.90;71.30;;;;;;4997589;28;20708;-59
2023/12/21 06:36:15;;;;;;;0.40;0.40;;;9.80;71.20;;;;;;4997228;28;20457;-59
2023/12/21 06:38:41;;;;;;;0.50;0.40;;;9.80;71.60;;;;;;4998267;28;20245;-60
2023/12/21 06:41:06;;;;;;;0.50;0.40;;;9.80;72.90;;;;;;4996692;28;20189;-58
2023/12/21 06:43:32;;;;;;;1.03;0.50;;;9.60;73.10;;;;;;4998014;28;20916;-60
2023/12/21 06:45:58;;;;;;;2.17;0.57;;;9.60;73.30;;;;;;4997409;28;20194;-58
2023/12/21 06:48:23;;;;;;;0.40;0.40;;;9.60;73.40;;;;;;4999547;28;20650;-58
2023/12/21 06:50:49;;;;;;;0.60;0.50;;;9.60;73.50;;;;;;4999799;28;20349;-60
2023/12/21 06:53:15;;;;;;;0.40;0.40;;;9.60;73.80;;;;;;4999996;28;20221;-60
2023/12/21 06:55:42;;;;;;;2.20;0.50;;;9.60;73.70;;;;;;4999467;28;20217;-59
2023/12/21 06:58:08;;;;;;;1.27;0.50;;;9.80;73.50;;;;;;4996358;28;20430;-58
2023/12/21 07:00:33;;;;;;;0.60;0.50;;;9.70;73.20;;;;;;4999235;28;20861;-59
2023/12/21 07:03:00;;;;;;;0.40;0.40;;;9.60;73.50;;;;;;4996386;28;20194;-58
2023/12/21 07:05:25;;;;;;;0.60;0.50;;;9.50;74.00;;;;;;4997998;28;20781;-58
2023/12/21 07:07:51;;;;;;;0.50;0.50;;;9.50;73.80;;;;;;4996391;28;20429;-58
2023/12/21 07:10:16;;;;;;;1.47;0.60;;;9.50;74.00;;;;;;4997924;28;20190;-58
2023/12/21 07:12:42;;;;;;;0.70;0.70;;;9.60;73.80;;;;;;4998171;28;20252;-58
2023/12/21 07:15:08;;;;;;;0.80;0.57;;;9.80;73.50;;;;;;4996844;28;20221;-58
2023/12/21 07:17:34;;;;;;;0.50;0.50;;;9.80;73.40;;;;;;5001247;28;20324;-59
2023/12/21 07:19:59;;;;;;;0.70;0.50;;;9.80;72.90;;;;;;5000213;28;20576;-59
2023/12/21 07:22:25;;;;;;;1.63;0.70;;;10.00;71.20;;;;;;5002777;28;20190;-59
2023/12/21 07:24:50;;;;;;;1.57;0.83;;;10.00;71.10;;;;;;5000070;28;20201;-60
2023/12/21 07:27:16;;;;;;;0.60;0.60;;;10.00;70.90;;;;;;5001130;28;20183;-57
2023/12/21 07:29:43;;;;;;;0.50;0.50;;;10.10;70.80;;;;;;5001925;28;20257;-60
2023/12/21 07:32:09;;;;;;;0.70;0.50;;;10.30;70.70;;;;;;5005361;28;20264;-60
2023/12/21 07:34:35;;;;;;;0.60;0.57;;;10.50;69.90;;;;;;5002048;28;20437;-60
2023/12/21 07:37:00;;;;;;;0.60;0.50;;;10.40;69.20;;;;;;5001113;28;20222;-58
2023/12/21 07:39:26;;;;;;;0.60;0.60;;;10.50;69.50;;;;;;5002728;28;20556;-59
2023/12/21 07:41:51;;;;;;;0.47;0.43;;;10.30;70.40;;;;;;5003713;28;20273;-60
2023/12/21 07:44:17;;;;;;;1.00;0.60;;;10.30;70.10;;;;;;5002636;28;20257;-59
2023/12/21 07:46:42;;;;;;;0.50;0.50;;;10.40;70.10;;;;;;5004964;28;20230;-58
2023/12/21 07:49:08;;;;;;;0.90;0.60;;;10.40;69.80;;;;;;5000056;28;20190;-61
2023/12/21 07:51:33;;;;;;;0.60;0.60;;;10.40;70.30;;;;;;5002629;28;20478;-58
2023/12/21 07:53:59;;;;;;;0.50;0.50;;;10.30;70.30;;;;;;4999703;28;20182;-58
2023/12/21 07:56:24;;;;;;;1.60;0.70;;;10.30;70.20;;;;;;5001295;28;20234;-60
2023/12/21 07:58:50;;;;;;;0.77;0.60;;;10.20;70.90;;;;;;4999707;28;20323;-59
2023/12/21 08:01:16;;;;;;;0.50;0.50;;;10.20;71.20;;;;;;5001052;28;20190;-59
2023/12/21 08:03:42;;;;;;;0.63;0.60;;;10.30;71.40;;;;;;5001759;28;20201;-60
2023/12/21 08:06:07;;;;;;;0.67;0.50;;;10.50;71.10;;;;;;4998789;28;20324;-59
2023/12/21 08:08:33;;;;;;;0.93;0.60;;;10.40;70.70;;;;;;5002126;28;20182;-61
2023/12/21 08:10:58;;;;;;;1.10;0.70;;;10.30;70.70;;;;;;5001192;28;20179;-60
2023/12/21 08:13:24;;;;;;;0.50;0.40;;;10.40;71.40;;;;;;5001839;28;20705;-62
2023/12/21 08:15:51;;;;;;;0.50;0.50;;;10.60;70.60;;;;;;5000884;28;20221;-58
2023/12/21 08:18:17;;;;;;;0.47;0.47;;;10.30;70.20;;;;;;5001385;28;20795;-59
2023/12/21 08:20:42;;;;;;;0.83;0.50;;;10.10;71.40;;;;;;5005276;28;20449;-60
2023/12/21 08:23:08;;;;;;;0.50;0.50;;;10.30;71.40;;;;;;5001917;28;20183;-59
2023/12/21 08:25:34;;;;;;;0.60;0.50;;;10.30;71.40;;;;;;5001787;28;20236;-60
2023/12/21 08:27:59;;;;;;;0.90;0.67;;;10.30;71.30;;;;;;5002477;28;20183;-62
2023/12/21 08:30:25;;;;;;;0.60;0.50;;;10.50;71.50;;;;;;5003526;28;20186;-62
2023/12/21 08:32:50;;;;;;;0.60;0.50;;;10.30;71.20;;;;;;4999755;28;20244;-61
2023/12/21 08:35:17;;;;;;;1.07;0.63;;;10.40;71.40;;;;;;5002933;28;20202;-59
2023/12/21 08:37:43;;;;;;;0.40;0.40;;;10.50;71.20;;;;;;5000514;28;20206;-58
2023/12/21 08:40:10;;;;;;;0.70;0.53;;;10.40;70.70;;;;;;4999588;28;20547;-62
2023/12/21 08:42:36;;;;;;;0.63;0.50;;;10.20;71.20;;;;;;5001443;28;20428;-62
2023/12/21 08:45:05;;;;;;;0.60;0.53;;;10.40;71.70;;;;;;4997895;28;20429;-62
2023/12/21 08:47:32;;;;;;;1.77;0.60;;;10.40;71.20;;;;;;4998044;28;20237;-59
2023/12/21 08:50:03;;;;;;;0.50;0.50;;;10.40;71.50;;;;;;4998570;28;20425;-62
2023/12/21 08:52:29;;;;;;;1.20;0.80;;;10.50;71.10;;;;;;5001734;28;20456;-60
2023/12/21 08:54:54;;;;;;;0.53;0.53;;;10.50;70.70;;;;;;4997996;28;20470;-60
2023/12/21 08:57:22;;;;;;;0.50;0.50;;;10.40;71.70;;;;;;4999917;28;20550;-62
2023/12/21 08:59:47;;;;;;;0.60;0.50;;;10.50;71.60;;;;;;4999527;28;20304;-61
2023/12/21 09:02:13;;;;;;;0.53;0.53;;;10.40;71.30;;;;;;4999385;28;21024;-59
2023/12/21 09:04:39;;;;;;;0.87;0.50;;;10.50;72.30;;;;;;4999787;28;20212;-60
2023/12/21 09:07:04;;;;;;;2.90;0.60;;;10.40;71.60;;;;;;4997774;28;20434;-61
2023/12/21 09:09:31;;;;;;;1.40;0.57;;;10.50;72.00;;;;;;5001270;28;20186;-62
2023/12/21 09:11:57;;;;;;;0.60;0.50;;;10.60;71.70;;;;;;4998177;28;20692;-59
2023/12/21 09:14:24;;;;;;;3.63;0.50;;;10.60;71.70;;;;;;4999782;28;20436;-60
2023/12/21 09:16:51;;;;;;;0.60;0.50;;;10.70;71.30;;;;;;4996482;28;20460;-62
2023/12/21 09:19:17;;;;;;;0.47;0.47;;;10.70;71.30;;;;;;4999512;28;20462;-59
2023/12/21 09:21:42;;;;;;;0.80;0.60;;;10.60;71.40;;;;;;4999972;28;20433;-61
2023/12/21 09:24:08;;;;;;;0.50;0.40;;;10.70;71.50;;;;;;4998220;28;20623;-61
2023/12/21 09:26:34;;;;;;;0.50;0.50;;;10.70;71.90;;;;;;4999575;28;20578;-61
2023/12/21 09:29:03;;;;;;;0.50;0.50;;;10.70;71.50;;;;;;4997823;28;20281;-61
2023/12/21 09:31:28;;;;;;;1.63;1.00;;;10.90;71.00;;;;;;5000932;28;20265;-59
2023/12/21 09:33:55;;;;;;;0.80;0.63;;;10.90;71.10;;;;;;4997934;28;20513;-62
2023/12/21 09:36:20;;;;;;;2.40;0.60;;;10.70;70.80;;;;;;4998835;28;20195;-59
2023/12/21 09:38:46;;;;;;;0.57;0.57;;;10.70;71.00;;;;;;4998145;28;20527;-61
2023/12/21 09:41:11;;;;;;;0.97;0.97;;;10.70;71.10;;;;;;4998377;28;20654;-59
2023/12/21 09:43:39;;;;;;;0.70;0.60;;;10.70;71.20;;;;;;5000049;28;20182;-62
2023/12/21 09:46:05;;;;;;;0.90;0.70;;;10.80;70.70;;;;;;4996744;28;20217;-62
2023/12/21 09:48:31;;;;;;;1.47;1.07;;;10.90;70.70;;;;;;4996679;28;20800;-61
2023/12/21 09:51:02;;;;;;;1.00;0.87;;;10.90;70.70;;;;;;4997434;28;20626;-61
2023/12/21 09:53:28;;;;;;;3.13;0.80;;;10.90;70.40;;;;;;5000373;28;20669;-62
2023/12/21 09:55:54;;;;;;;1.00;0.50;;;10.80;70.60;;;;;;4996778;28;20441;-61
2023/12/21 09:58:20;;;;;;;1.00;0.60;;;10.80;70.80;;;;;;4998786;28;20437;-60
2023/12/21 10:00:45;;;;;;;0.90;0.60;;;10.60;70.80;;;;;;4998922;28;20178;-60
2023/12/21 10:03:11;;;;;;;0.70;0.60;;;10.60;71.20;;;;;;4997841;28;20232;-61
2023/12/21 10:05:39;;;;;;;0.83;0.53;;;10.60;71.70;;;;;;4999075;28;20698;-60
2023/12/21 10:08:05;;;;;;;2.30;0.57;;;10.80;70.80;;;;;;4996886;28;20183;-62
2023/12/21 10:10:31;;;;;;;1.33;0.60;;;10.80;70.50;;;;;;4996797;28;20465;-61
2023/12/21 10:12:58;;;;;;;0.60;0.50;;;10.80;70.60;;;;;;4997102;28;20442;-62
2023/12/21 10:15:23;;;;;;;0.50;0.50;;;10.90;70.80;;;;;;4998270;28;20586;-62
2023/12/21 10:17:50;;;;;;;0.93;0.60;;;10.80;70.30;;;;;;4996583;28;20425;-62
2023/12/21 10:20:15;;;;;;;0.60;0.60;;;10.70;70.60;;;;;;4998316;28;20206;-62
2023/12/21 10:22:44;;;;;;;0.57;0.57;;;10.80;71.10;;;;;;4998978;28;20432;-62
2023/12/21 10:25:11;;;;;;;1.37;0.70;;;10.80;70.40;;;;;;4996643;28;20203;-63
2023/12/21 10:27:37;;;;;;;0.87;0.60;;;11.00;70.50;;;;;;4999209;28;21138;-62
2023/12/21 10:30:04;;;;;;;0.57;0.57;;;10.90;69.80;;;;;;4996766;28;20432;-61
2023/12/21 10:32:30;;;;;;;0.60;0.60;;;10.80;70.60;;;;;;4999995;28;20569;-62
2023/12/21 10:34:59;;;;;;;1.00;0.60;;;10.60;71.30;;;;;;4996333;28;20424;-59
2023/12/21 10:37:25;;;;;;;0.80;0.50;;;10.70;71.50;;;;;;4998943;28;20714;-61
2023/12/21 10:39:52;;;;;;;1.80;0.60;;;10.70;71.40;;;;;;4997611;28;20955;-62
2023/12/21 10:42:19;;;;;;;0.50;0.50;;;11.00;71.20;;;;;;4998345;28;20969;-63
2023/12/21 10:44:47;;;;;;;0.50;0.50;;;11.00;70.80;;;;;;4997809;28;20470;-62
2023/12/21 10:47:13;;;;;;;1.17;0.50;;;11.10;70.90;;;;;;4997316;28;20425;-59
2023/12/21 10:49:42;;;;;;;1.13;0.63;;;11.10;70.60;;;;;;4999336;28;20420;-62
2023/12/21 10:52:12;;;;;;;0.57;0.50;;;11.10;71.00;;;;;;5001019;28;20474;-62
2023/12/21 10:54:42;;;;;;;0.70;0.60;;;11.00;71.40;;;;;;5002535;28;20440;-61
2023/12/21 10:57:08;;;;;;;0.50;0.50;;;11.00;71.70;;;;;;5000390;28;20468;-62
2023/12/21 10:59:35;;;;;;;0.50;0.50;;;11.10;71.30;;;;;;5003682;28;20475;-60
2023/12/21 11:02:02;;;;;;;0.60;0.60;;;11.10;71.60;;;;;;4998838;28;20928;-62
2023/12/21 11:04:28;;;;;;;0.80;0.67;;;11.10;71.10;;;;;;5002751;28;20615;-60
2023/12/21 11:06:54;;;;;;;1.03;0.60;;;11.00;71.50;;;;;;5000465;28;20777;-59
2023/12/21 11:09:21;;;;;;;0.53;0.53;;;11.10;71.90;;;;;;5002206;28;20444;-62
2023/12/21 11:11:47;;;;;;;0.70;0.50;;;11.10;72.00;;;;;;5001737;28;20443;-63
2023/12/21 11:14:13;;;;;;;0.50;0.50;;;11.00;71.60;;;;;;5003399;28;20533;-61
2023/12/21 11:17:00;;;;;;;0.80;0.60;;;11.20;71.40;;;;;;5010212;28;20233;-62
2023/12/21 11:19:30;;;;;;;0.50;0.50;;;11.30;71.50;;;;;;5002633;28;20483;-61
2023/12/21 11:21:56;;;;;;;0.50;0.50;;;11.30;71.10;;;;;;5000823;28;20417;-61
2023/12/21 11:24:22;;;;;;;1.13;0.50;;;11.10;71.50;;;;;;5002929;28;20421;-62
2023/12/21 11:26:52;;;;;;;0.80;0.57;;;11.30;71.60;;;;;;5001116;28;20601;-58
2023/12/21 11:29:26;;;;;;;0.60;0.60;;;11.30;71.60;;;;;;5001844;28;20786;-62
2023/12/21 11:31:52;;;;;;;0.50;0.50;;;11.10;71.70;;;;;;5000494;28;21026;-61
2023/12/21 11:34:20;;;;;;;1.63;0.77;;;11.20;71.60;;;;;;5001422;28;20428;-62
2023/12/21 11:36:49;;;;;;;2.30;1.13;;;11.10;71.50;;;;;;5001167;28;20452;-60
2023/12/21 11:39:22;;;;;;;0.70;0.70;;;11.20;71.90;;;;;;5001293;28;20481;-62
2023/12/21 11:41:59;;;;;;;2.00;0.70;;;11.30;71.60;;;;;;5001259;28;20483;-63
2023/12/21 11:44:35;;;;;;;0.77;0.60;;;11.30;71.30;;;;;;5001427;28;20445;-63
2023/12/21 11:47:01;;;;;;;0.60;0.60;;;11.20;71.50;;;;;;5003634;28;20473;-62
2023/12/21 11:49:27;;;;;;;0.60;0.60;;;11.20;71.50;;;;;;5002380;28;20507;-61
2023/12/21 11:51:53;;;;;;;0.60;0.50;;;11.30;71.60;;;;;;5000131;28;20434;-59
2023/12/21 11:54:23;;;;;;;0.50;0.50;;;11.30;71.10;;;;;;5001015;28;20264;-64
2023/12/21 11:57:12;;;;;;;0.60;0.60;;;11.50;70.40;;;;;;5000553;28;20284;-62
2023/12/21 11:59:37;;;;;;;0.70;0.70;;;11.40;70.50;;;;;;4999385;28;20476;-60
2023/12/21 12:02:06;;;;;;;0.70;0.60;;;11.40;70.80;;;;;;4997460;28;20786;-61
2023/12/21 12:04:32;;;;;;;0.40;0.40;;;11.30;70.80;;;;;;4999052;28;20198;-61
2023/12/21 12:06:58;;;;;;;0.70;0.50;;;11.30;71.10;;;;;;4999326;28;20441;-62
2023/12/21 12:09:23;;;;;;;0.50;0.50;;;11.20;71.10;;;;;;5001825;28;20552;-59
2023/12/21 12:11:51;;;;;;;0.87;0.70;;;11.30;71.40;;;;;;5000539;28;20963;-61
2023/12/21 12:14:18;;;;;;;0.53;0.50;;;11.40;71.70;;;;;;5002865;28;20189;-57
2023/12/21 12:16:43;;;;;;;0.70;0.53;;;11.30;71.50;;;;;;4999094;28;20914;-60
2023/12/21 12:19:12;;;;;;;0.80;0.60;;;11.40;71.70;;;;;;4999791;28;20568;-62
2023/12/21 12:21:37;;;;;;;0.97;0.83;;;11.20;72.40;;;;;;5001851;28;20185;-58
2023/12/21 12:24:05;;;;;;;0.60;0.60;;;11.20;72.90;;;;;;4998813;28;20418;-60
2023/12/21 12:26:31;;;;;;;0.60;0.60;;;11.30;73.00;;;;;;4998190;28;20569;-59
2023/12/21 12:28:56;;;;;;;0.57;0.53;;;11.50;72.40;;;;;;4999137;28;20428;-62
2023/12/21 12:31:22;;;;;;;1.00;0.90;;;11.60;71.80;;;;;;5001359;28;20191;-59
2023/12/21 12:33:48;;;;;;;0.70;0.70;;;11.50;72.30;;;;;;4999864;28;20561;-63
2023/12/21 12:36:18;;;;;;;1.20;0.83;;;11.60;72.50;;;;;;4999554;28;20202;-60
2023/12/21 12:38:45;;;;;;;0.50;0.50;;;11.40;72.70;;;;;;5000519;28;20919;-61
2023/12/21 12:41:23;;;;;;;0.63;0.60;;;11.60;73.10;;;;;;4999751;28;20425;-59
2023/12/21 12:43:49;;;;;;;1.07;0.80;;;11.60;71.60;;;;;;4999702;28;20429;-62
2023/12/21 12:46:15;;;;;;;0.87;0.63;;;11.40;71.80;;;;;;4999437;28;20817;-63
2023/12/21 12:48:41;;;;;;;0.67;0.67;;;11.50;72.20;;;;;;5002139;28;20441;-62